Time;durP1;ratioP1;P1;durP2;ratioP2;P2;SDS_P1;SDS_P2;PMS_P1;PMS_P2;Temp;Humidity;BMP_temperature;BMP_pressure;BME280_temperature;BME280_humidity;BME280_pressure;Samples;Min_cycle;Max_cycle;Signal;HPM_P1;HPM_P2
2021/07/02 00:01:17;;;;;;;5.43;4.53;;;;;;;17.96;72.53;98619.34;125072;1093;64348;-80
2021/07/02 00:03:43;;;;;;;6.37;4.30;;;;;;;17.91;72.57;98619.80;125147;1093;64268;-80
2021/07/02 00:06:10;;;;;;;5.50;5.00;;;;;;;17.90;72.50;98618.09;125116;1093;64354;-80
2021/07/02 00:08:36;;;;;;;5.43;4.93;;;;;;;17.91;72.69;98613.58;125100;1093;64220;-80
2021/07/02 00:11:03;;;;;;;6.03;4.80;;;;;;;17.90;72.93;98618.09;125078;1093;64281;-81
2021/07/02 00:13:30;;;;;;;5.97;4.57;;;;;;;17.89;73.31;98618.27;125087;1093;64303;-81
2021/07/02 00:15:56;;;;;;;5.13;4.63;;;;;;;17.85;73.00;98611.48;125115;1090;64269;-82
2021/07/02 00:18:23;;;;;;;5.03;4.47;;;;;;;17.82;73.22;98618.04;125077;1093;64304;-81
2021/07/02 00:20:50;;;;;;;5.60;4.27;;;;;;;17.82;73.48;98618.04;125095;1093;64364;-81
2021/07/02 00:23:17;;;;;;;5.65;3.95;;;;;;;17.81;73.49;98619.06;125114;1093;64287;-81
2021/07/02 00:25:43;;;;;;;5.20;4.30;;;;;;;17.82;73.55;98614.51;125082;1093;64211;-81
2021/07/02 00:28:10;;;;;;;5.57;4.07;;;;;;;17.83;73.68;98613.52;125076;1093;64437;-80
2021/07/02 00:30:36;;;;;;;4.90;4.37;;;;;;;17.85;73.57;98616.88;125108;1093;64314;-81
2021/07/02 00:33:03;;;;;;;4.83;4.33;;;;;;;17.86;73.44;98615.89;125115;1092;64725;-82
2021/07/02 00:35:30;;;;;;;5.23;4.23;;;;;;;17.88;73.68;98611.20;125080;1093;64322;-81
2021/07/02 00:37:59;;;;;;;5.07;4.60;;;;;;;17.86;73.25;98611.34;125062;1093;64280;-81
2021/07/02 00:40:25;;;;;;;4.33;3.93;;;;;;;17.85;73.61;98612.36;125141;1093;64265;-81
2021/07/02 00:42:52;;;;;;;5.77;4.17;;;;;;;17.84;73.57;98607.95;125107;1093;64348;-81
2021/07/02 00:45:20;;;;;;;5.63;4.47;;;;;;;17.82;73.61;98611.81;125130;1092;64257;-81
2021/07/02 00:47:47;;;;;;;7.30;4.57;;;;;;;17.82;73.45;98609.11;125173;1093;64337;-82
2021/07/02 00:50:14;;;;;;;7.20;5.95;;;;;;;17.80;73.31;98611.12;125096;1093;64241;-81
2021/07/02 00:52:41;;;;;;;8.30;6.03;;;;;;;17.78;73.38;98601.31;125094;1092;64286;-82
2021/07/02 00:55:11;;;;;;;10.13;6.33;;;;;;;17.75;73.24;98606.19;125057;1093;64330;-81
2021/07/02 00:57:40;;;;;;;5.93;5.43;;;;;;;17.72;73.16;98604.66;125101;1093;64268;-81
2021/07/02 01:00:09;;;;;;;5.27;4.77;;;;;;;17.71;73.48;98608.34;125096;1093;64271;-80
2021/07/02 01:02:36;;;;;;;6.03;5.43;;;;;;;17.70;73.22;98605.81;125172;1093;64425;-81
2021/07/02 01:05:04;;;;;;;5.57;5.07;;;;;;;17.71;73.34;98608.34;125124;1093;64262;-81
2021/07/02 01:07:33;;;;;;;7.17;4.97;;;;;;;17.72;73.33;98607.35;125167;1093;64290;-81
2021/07/02 01:10:00;;;;;;;6.93;4.90;;;;;;;17.71;73.28;98604.80;125072;1093;64290;-81
2021/07/02 01:12:27;;;;;;;5.60;5.03;;;;;;;17.67;73.06;98592.66;125104;1093;64268;-80
2021/07/02 01:14:53;;;;;;;8.20;5.50;;;;;;;17.64;73.23;98603.73;125113;1091;64189;-82
2021/07/02 01:17:20;;;;;;;6.37;5.07;;;;;;;17.63;73.59;98602.05;125098;1093;64309;-81
2021/07/02 01:19:52;;;;;;;6.65;5.30;;;;;;;17.61;73.31;98596.80;125071;1092;64267;-81
2021/07/02 01:22:26;;;;;;;7.17;5.90;;;;;;;17.58;73.56;98601.67;125125;1093;64239;-81
2021/07/02 01:24:56;;;;;;;7.57;6.07;;;;;;;17.55;73.79;98608.22;125046;1093;64265;-81
2021/07/02 01:27:24;;;;;;;10.67;7.67;;;;;;;17.57;74.01;98602.69;125092;1093;65622;-81
2021/07/02 01:29:50;;;;;;;14.40;9.43;;;;;;;17.58;73.94;98601.67;125123;1093;64287;-81
2021/07/02 01:32:18;;;;;;;13.30;9.33;;;;;;;17.55;73.64;98598.28;125066;1093;64265;-81
2021/07/02 01:34:44;;;;;;;9.87;8.37;;;;;;;17.54;73.74;98593.91;125158;1093;64268;-81
2021/07/02 01:37:13;;;;;;;8.77;6.53;;;;;;;17.52;73.76;98595.06;125107;1093;64319;-81
2021/07/02 01:39:40;;;;;;;5.70;5.20;;;;;;;17.50;73.84;98584.44;125114;1092;64264;-81
2021/07/02 01:42:08;;;;;;;5.33;4.73;;;;;;;17.50;73.80;98592.52;125110;1093;64241;-81
2021/07/02 01:44:36;;;;;;;4.83;4.40;;;;;;;17.49;74.23;98598.92;125127;1093;64268;-82
2021/07/02 01:47:03;;;;;;;5.10;4.57;;;;;;;17.48;74.17;98599.94;125179;1093;64233;-82
2021/07/02 01:49:30;;;;;;;6.70;5.03;;;;;;;17.48;74.10;98596.37;125113;1093;64223;-82
2021/07/02 01:51:56;;;;;;;5.45;4.35;;;;;;;17.44;74.17;98595.84;125094;1092;64265;-81
2021/07/02 01:54:23;;;;;;;4.77;4.37;;;;;;;17.45;74.46;98597.52;125149;1092;64923;-81
2021/07/02 01:56:51;;;;;;;6.40;4.63;;;;;;;17.45;74.93;98599.38;125135;1093;64281;-81
2021/07/02 01:59:18;;;;;;;9.67;5.53;;;;;;;17.43;74.48;98601.38;125145;1091;64297;-81
2021/07/02 02:01:48;;;;;;;9.27;6.37;;;;;;;17.42;74.54;98603.23;125081;1093;64264;-81
2021/07/02 02:04:15;;;;;;;9.33;6.60;;;;;;;17.45;74.82;98602.08;125125;1093;64280;-80
2021/07/02 02:06:42;;;;;;;12.85;7.75;;;;;;;17.44;74.81;98595.84;125100;1093;64295;-80
2021/07/02 02:09:09;;;;;;;9.35;6.10;;;;;;;17.44;74.76;98593.16;125077;1093;64795;-80
2021/07/02 02:11:35;;;;;;;11.10;7.27;;;;;;;17.43;75.06;98598.69;125081;1093;64344;-80
2021/07/02 02:14:03;;;;;;;9.40;6.50;;;;;;;17.39;75.24;98603.55;125078;1093;64185;-80
2021/07/02 02:16:29;;;;;;;7.80;5.70;;;;;;;17.38;75.35;98606.38;125073;1093;64766;-80
2021/07/02 02:18:56;;;;;;;7.50;5.15;;;;;;;17.31;75.27;98607.02;125111;1093;64331;-80
2021/07/02 02:21:22;;;;;;;5.53;4.63;;;;;;;17.30;75.56;98615.27;125118;1093;64275;-80
2021/07/02 02:23:49;;;;;;;5.87;4.87;;;;;;;17.30;75.29;98613.41;125164;1093;64284;-81
2021/07/02 02:26:16;;;;;;;6.30;4.40;;;;;;;17.32;75.69;98611.42;125146;1093;64241;-81
2021/07/02 02:28:43;;;;;;;9.40;6.23;;;;;;;17.32;75.82;98610.55;125167;1093;64268;-81
2021/07/02 02:31:09;;;;;;;10.27;5.60;;;;;;;17.30;75.61;98609.88;125116;1093;64386;-81
2021/07/02 02:33:36;;;;;;;8.27;5.57;;;;;;;17.28;75.83;98596.55;125110;1093;64268;-81
2021/07/02 02:36:04;;;;;;;7.97;5.87;;;;;;;17.27;75.76;98607.47;125098;1093;64215;-81
2021/07/02 02:38:31;;;;;;;7.03;5.13;;;;;;;17.25;75.82;98604.95;125146;1092;64294;-81
2021/07/02 02:40:58;;;;;;;5.47;4.80;;;;;;;17.21;75.78;98613.48;125079;1093;64434;-81
2021/07/02 02:43:25;;;;;;;7.77;5.20;;;;;;;17.19;76.57;98604.70;125117;1093;64306;-81
2021/07/02 02:45:51;;;;;;;11.67;8.40;;;;;;;17.15;76.19;98598.80;125091;1093;64245;-81
2021/07/02 02:48:18;;;;;;;11.93;8.50;;;;;;;17.14;76.53;98602.50;125080;1093;64265;-81
2021/07/02 02:50:46;;;;;;;13.43;8.60;;;;;;;17.13;76.64;98602.64;125109;1093;64223;-81
2021/07/02 02:53:13;;;;;;;11.83;8.00;;;;;;;17.10;76.58;98601.94;125139;1093;64405;-81
2021/07/02 02:55:39;;;;;;;7.80;6.67;;;;;;;17.07;76.34;98599.56;125123;1093;64306;-81
2021/07/02 02:58:06;;;;;;;7.00;5.67;;;;;;;17.06;76.81;98603.27;125136;1093;64198;-81
2021/07/02 03:00:32;;;;;;;4.77;4.33;;;;;;;17.03;77.07;98594.63;125213;1093;64390;-81
2021/07/02 03:02:59;;;;;;;5.50;5.07;;;;;;;17.03;76.83;98600.85;125077;1093;64264;-81
2021/07/02 03:05:26;;;;;;;4.63;4.20;;;;;;;17.05;76.98;98601.55;125071;1093;64242;-81
2021/07/02 03:07:55;;;;;;;6.67;4.73;;;;;;;17.08;76.67;98603.09;125130;1093;64472;-81
2021/07/02 03:10:22;;;;;;;5.70;4.53;;;;;;;17.07;77.00;98602.26;125109;1093;64377;-81
2021/07/02 03:12:49;;;;;;;4.60;4.20;;;;;;;17.06;76.69;98605.96;125097;1092;64264;-81
2021/07/02 03:15:16;;;;;;;4.47;4.10;;;;;;;17.07;77.31;98613.02;125147;1093;64268;-81
2021/07/02 03:17:44;;;;;;;5.00;4.20;;;;;;;17.08;77.13;98611.17;125158;1093;64511;-81
2021/07/02 03:20:11;;;;;;;4.30;4.00;;;;;;;17.12;77.20;98615.27;125172;1093;64415;-82
2021/07/02 03:22:41;;;;;;;4.30;4.00;;;;;;;17.14;77.01;98620.48;125076;1093;64268;-81
2021/07/02 03:25:09;;;;;;;6.83;4.43;;;;;;;17.14;76.83;98628.55;125034;1092;64210;-81
2021/07/02 03:27:36;;;;;;;5.17;4.23;;;;;;;17.16;76.85;98627.41;125114;1093;64268;-82
2021/07/02 03:30:08;;;;;;;6.13;5.53;;;;;;;17.22;76.89;98637.58;125120;1093;64420;-81
2021/07/02 03:32:35;;;;;;;5.37;4.80;;;;;;;17.25;77.08;98634.58;125125;1093;64324;-81
2021/07/02 03:35:02;;;;;;;5.17;4.73;;;;;;;17.30;76.93;98631.43;125100;1093;64272;-82
2021/07/02 03:37:29;;;;;;;6.10;5.00;;;;;;;17.37;77.06;98634.33;125127;1093;64315;-82
2021/07/02 03:39:56;;;;;;;5.53;4.87;;;;;;;17.43;77.14;98637.27;125104;1092;64268;-81
2021/07/02 03:42:22;;;;;;;6.70;5.40;;;;;;;17.51;76.96;98626.56;125098;1093;64415;-81
2021/07/02 03:44:49;;;;;;;6.73;6.13;;;;;;;17.60;76.93;98621.23;125122;1093;64326;-81
2021/07/02 03:47:16;;;;;;;7.17;6.47;;;;;;;17.58;76.42;98636.70;125099;1093;64299;-81
2021/07/02 03:49:42;;;;;;;7.23;6.63;;;;;;;17.58;76.80;98639.39;125117;1093;64281;-81
2021/07/02 03:52:09;;;;;;;6.60;5.90;;;;;;;17.63;76.79;98643.31;125110;1093;64284;-81
2021/07/02 03:54:36;;;;;;;5.97;5.47;;;;;;;17.69;76.73;98641.84;125089;1093;64431;-81
2021/07/02 03:57:12;;;;;;;5.50;5.00;;;;;;;17.82;76.59;98647.69;125108;1093;64376;-81
2021/07/02 03:59:40;;;;;;;5.93;5.33;;;;;;;17.91;76.38;98641.38;125131;1093;64306;-81
2021/07/02 04:02:07;;;;;;;5.15;4.70;;;;;;;18.01;76.20;98643.11;125093;1093;64290;-81
2021/07/02 04:04:35;;;;;;;5.80;5.30;;;;;;;18.39;75.34;98636.42;125113;1092;64271;-81
2021/07/02 04:07:04;;;;;;;6.07;5.50;;;;;;;18.68;74.89;98643.30;125105;1091;64188;-81
2021/07/02 04:09:32;;;;;;;5.40;5.00;;;;;;;18.99;74.18;98638.20;125179;1093;64264;-82
2021/07/02 04:12:00;;;;;;;6.17;5.67;;;;;;;19.64;72.77;98638.28;125178;1092;64210;-82
2021/07/02 04:14:29;;;;;;;6.60;6.10;;;;;;;20.09;72.08;98639.61;125130;1093;64257;-80
2021/07/02 04:16:56;;;;;;;7.47;6.67;;;;;;;20.05;71.91;98632.84;125084;1093;64296;-81
2021/07/02 04:19:23;;;;;;;7.07;6.43;;;;;;;19.73;72.55;98642.69;125070;1093;64351;-81
2021/07/02 04:21:52;;;;;;;8.53;7.83;;;;;;;19.45;72.91;98644.00;125078;1093;64268;-80
2021/07/02 04:24:19;;;;;;;7.63;6.87;;;;;;;19.20;73.10;98649.38;125129;1093;64293;-81
2021/07/02 04:26:46;;;;;;;9.47;7.50;;;;;;;18.98;73.30;98641.89;125138;1092;64283;-81
2021/07/02 04:29:13;;;;;;;8.55;7.50;;;;;;;18.76;73.75;98641.50;125105;1093;64284;-81
2021/07/02 04:31:40;;;;;;;8.07;6.30;;;;;;;18.60;74.22;98657.60;125064;1093;64360;-81
2021/07/02 04:34:06;;;;;;;7.70;6.77;;;;;;;18.48;74.22;98648.09;125122;1093;64265;-81
2021/07/02 04:36:35;;;;;;;8.10;6.77;;;;;;;18.46;74.67;98652.80;125107;1093;64283;-81
2021/07/02 04:39:02;;;;;;;7.67;6.97;;;;;;;18.40;75.05;98651.59;125107;1093;64287;-82
2021/07/02 04:41:29;;;;;;;7.97;7.17;;;;;;;18.39;75.22;98653.45;125108;1093;64281;-81
2021/07/02 04:43:56;;;;;;;7.03;6.33;;;;;;;18.39;75.65;98653.45;125109;1093;64626;-81
2021/07/02 04:46:22;;;;;;;6.80;6.23;;;;;;;18.36;75.91;98651.08;125160;1093;64281;-81
2021/07/02 04:48:49;;;;;;;10.00;6.55;;;;;;;18.33;75.98;98661.36;125141;1093;64290;-81
2021/07/02 04:51:15;;;;;;;6.30;5.80;;;;;;;18.25;75.87;98661.31;125177;1092;64284;-81
2021/07/02 04:53:43;;;;;;;6.85;6.25;;;;;;;18.15;76.19;98659.56;125172;1093;64306;-81
2021/07/02 04:56:13;;;;;;;8.90;6.90;;;;;;;18.11;76.17;98660.87;125191;1093;64456;-81
2021/07/02 04:58:43;;;;;;;8.57;7.40;;;;;;;18.09;76.69;98662.03;125193;1093;64268;-81
2021/07/02 05:01:13;;;;;;;8.10;7.07;;;;;;;18.07;76.57;98670.30;125204;1093;64268;-80
2021/07/02 05:03:39;;;;;;;7.88;7.05;;;;;;;18.05;76.92;98668.77;125127;1093;64262;-80
2021/07/02 05:06:07;;;;;;;9.13;7.00;;;;;;;18.06;77.10;98671.31;125114;1093;64287;-80
2021/07/02 05:08:34;;;;;;;7.93;7.23;;;;;;;18.08;76.86;98663.05;125102;1093;64849;-81
2021/07/02 05:11:02;;;;;;;8.40;7.53;;;;;;;18.17;77.26;98670.20;125128;1092;64408;-81
2021/07/02 05:13:28;;;;;;;9.27;7.70;;;;;;;18.33;76.85;98672.15;125102;1092;64281;-81
2021/07/02 05:15:55;;;;;;;9.50;7.37;;;;;;;18.56;76.54;98673.28;125123;1093;64268;-81
2021/07/02 05:18:22;;;;;;;9.03;7.77;;;;;;;18.83;76.25;98674.94;125068;1093;64248;-81
2021/07/02 05:20:48;;;;;;;8.20;7.50;;;;;;;19.06;76.31;98672.48;125096;1090;64428;-81
2021/07/02 05:23:15;;;;;;;8.47;7.57;;;;;;;19.29;75.67;98666.44;125097;1093;64277;-81
2021/07/02 05:25:42;;;;;;;8.63;7.83;;;;;;;19.44;75.44;98669.34;125137;1093;64708;-81
2021/07/02 05:28:10;;;;;;;8.97;8.07;;;;;;;19.53;75.06;98669.16;125095;1093;64354;-81
2021/07/02 05:30:37;;;;;;;9.30;8.20;;;;;;;19.61;74.68;98665.63;125070;1093;64287;-81
2021/07/02 05:33:04;;;;;;;9.40;8.50;;;;;;;19.66;74.33;98670.53;125098;1093;64679;-81
2021/07/02 05:35:31;;;;;;;10.37;9.43;;;;;;;19.73;74.50;98671.59;125131;1093;64315;-81
2021/07/02 05:37:58;;;;;;;9.80;8.87;;;;;;;19.84;74.19;98670.40;125096;1093;64284;-81
2021/07/02 05:40:25;;;;;;;8.73;7.97;;;;;;;19.88;73.74;98682.55;125170;1093;64293;-82
2021/07/02 05:42:51;;;;;;;9.97;6.80;;;;;;;19.88;73.65;98683.42;125174;1093;64306;-82
2021/07/02 05:45:18;;;;;;;13.17;7.33;;;;;;;19.92;72.96;98686.63;125120;1092;64238;-82
2021/07/02 05:47:50;;;;;;;8.30;6.93;;;;;;;20.01;72.88;98690.16;125214;1093;64431;-81
2021/07/02 05:50:18;;;;;;;8.13;6.53;;;;;;;20.06;72.65;98693.19;125097;1093;64266;-82
2021/07/02 05:52:47;;;;;;;6.77;6.10;;;;;;;20.13;72.25;98686.93;125244;1092;64223;-81
2021/07/02 05:55:14;;;;;;;8.93;6.83;;;;;;;20.22;71.66;98687.78;125247;1093;64242;-81
2021/07/02 05:57:41;;;;;;;6.03;5.53;;;;;;;20.28;71.31;98687.09;125126;1093;64268;-81
2021/07/02 06:00:09;;;;;;;10.97;6.80;;;;;;;20.35;71.42;98682.69;125133;1093;64188;-81
2021/07/02 06:02:35;;;;;;;7.03;6.27;;;;;;;20.49;70.66;98677.57;125188;1093;64390;-81
2021/07/02 06:05:03;;;;;;;6.57;6.07;;;;;;;20.57;70.71;98674.86;125176;1093;64325;-81
2021/07/02 06:07:44;;;;;;;6.93;6.10;;;;;;;20.56;69.96;98670.45;125181;1093;64236;-82
2021/07/02 06:10:12;;;;;;;7.63;5.70;;;;;;;20.54;70.04;98680.63;125074;1093;64313;-82
2021/07/02 06:12:39;;;;;;;8.73;6.80;;;;;;;20.57;69.93;98675.70;125141;1092;64414;-81
2021/07/02 06:15:06;;;;;;;8.40;6.87;;;;;;;20.65;69.35;98679.41;125099;1093;64801;-81
2021/07/02 06:17:33;;;;;;;7.20;6.50;;;;;;;20.81;69.29;98677.47;125158;1092;64370;-83
2021/07/02 06:19:59;;;;;;;8.30;6.23;;;;;;;20.99;69.38;98679.94;125126;1093;64340;-81
2021/07/02 06:22:26;;;;;;;7.87;7.07;;;;;;;21.42;68.38;98682.25;125086;1093;64859;-81
2021/07/02 06:24:52;;;;;;;5.90;5.30;;;;;;;22.16;67.10;98678.94;125189;1092;64407;-82
2021/07/02 06:27:19;;;;;;;5.63;5.13;;;;;;;22.37;65.54;98683.67;125225;1092;64217;-81
2021/07/02 06:29:45;;;;;;;6.40;5.30;;;;;;;22.64;65.46;98682.18;125199;1093;64277;-81
2021/07/02 06:32:12;;;;;;;4.70;4.20;;;;;;;22.98;64.57;98679.73;125159;1093;64153;-80
2021/07/02 06:34:39;;;;;;;4.60;4.00;;;;;;;23.31;64.42;98676.58;125137;1092;64213;-80
2021/07/02 06:37:06;;;;;;;3.47;3.20;;;;;;;23.75;62.47;98683.77;125200;1093;64287;-80
2021/07/02 06:39:32;;;;;;;3.50;3.20;;;;;;;24.22;60.81;98667.80;125124;1092;64295;-80
2021/07/02 06:41:59;;;;;;;3.47;3.27;;;;;;;24.48;58.94;98664.45;125132;1093;64261;-80
2021/07/02 06:44:25;;;;;;;4.97;3.37;;;;;;;24.10;57.93;98671.08;125083;1093;64284;-81
2021/07/02 06:46:52;;;;;;;2.77;2.43;;;;;;;23.74;58.58;98681.23;125096;1093;64420;-81
2021/07/02 06:49:18;;;;;;;4.13;3.73;;;;;;;23.52;58.72;98675.77;125120;1092;64244;-81
2021/07/02 06:51:45;;;;;;;4.00;3.40;;;;;;;23.35;58.67;98674.31;125071;1093;64291;-81
2021/07/02 06:54:11;;;;;;;3.33;3.03;;;;;;;23.20;58.91;98680.64;125115;1093;64290;-81
2021/07/02 06:56:59;;;;;;;2.80;2.60;;;;;;;22.94;58.52;98678.41;125118;1092;64297;-81
2021/07/02 06:59:25;;;;;;;4.70;3.03;;;;;;;22.74;58.83;98686.30;125116;1093;64386;-81
2021/07/02 07:01:51;;;;;;;3.03;2.60;;;;;;;22.72;59.30;98687.52;125089;1093;64376;-81
2021/07/02 07:04:18;;;;;;;3.00;2.80;;;;;;;22.87;59.52;98679.36;125061;1093;64274;-81
2021/07/02 07:06:44;;;;;;;3.33;3.03;;;;;;;22.89;58.24;98678.14;125086;1093;64255;-81
2021/07/02 07:09:11;;;;;;;3.53;2.77;;;;;;;22.73;57.57;98689.22;125109;1093;64188;-81
2021/07/02 07:11:38;;;;;;;4.30;2.83;;;;;;;22.50;57.42;98681.99;125106;1093;64293;-81
2021/07/02 07:14:04;;;;;;;3.20;2.90;;;;;;;22.28;57.76;98685.64;125127;1092;64800;-81
2021/07/02 07:16:31;;;;;;;4.10;2.90;;;;;;;22.25;58.18;98686.86;125128;1092;64273;-81
2021/07/02 07:19:01;;;;;;;3.47;2.70;;;;;;;22.43;58.59;98677.48;125286;1092;64219;-81
2021/07/02 07:21:34;;;;;;;2.83;2.60;;;;;;;22.62;57.28;98678.80;125328;1092;64210;-81
2021/07/02 07:24:06;;;;;;;3.63;2.90;;;;;;;22.71;57.70;98677.69;125250;1093;64275;-79
2021/07/02 07:26:38;;;;;;;2.73;2.40;;;;;;;22.82;57.59;98679.92;125224;1092;64381;-80
2021/07/02 07:29:08;;;;;;;2.73;2.30;;;;;;;22.82;56.92;98673.65;125045;1093;64273;-81
2021/07/02 07:31:44;;;;;;;2.50;2.20;;;;;;;22.72;56.84;98677.52;125233;1093;64223;-82
2021/07/02 07:34:22;;;;;;;3.50;2.50;;;;;;;22.52;56.98;98679.10;125313;1093;64198;-82
2021/07/02 07:36:56;;;;;;;7.00;3.57;;;;;;;22.47;57.45;98674.22;125061;1092;64412;-82
2021/07/02 07:39:27;;;;;;;2.93;2.50;;;;;;;22.56;57.98;98675.83;125118;1092;64367;-82
2021/07/02 07:41:56;;;;;;;2.87;2.57;;;;;;;22.55;57.83;98679.56;125209;1093;64207;-82
2021/07/02 07:44:24;;;;;;;3.58;2.60;;;;;;;22.53;57.77;98678.90;125266;1093;64207;-80
2021/07/02 07:46:51;;;;;;;3.87;2.40;;;;;;;22.45;58.01;98678.98;125127;1093;64287;-82
2021/07/02 07:49:18;;;;;;;2.97;2.77;;;;;;;22.42;57.97;98678.53;125111;1093;64281;-81
2021/07/02 07:54:17;;;;;;;3.00;2.80;;;;;;;22.11;58.60;98682.20;125034;1093;64262;-77
2021/07/02 07:56:54;;;;;;;3.27;2.80;;;;;;;21.95;59.15;98680.47;124983;1093;64289;-77
2021/07/02 07:59:22;;;;;;;4.33;3.67;;;;;;;22.01;59.71;98681.61;125042;1092;64280;-77
2021/07/02 08:01:49;;;;;;;3.13;2.93;;;;;;;22.10;59.49;98688.66;125065;1093;64418;-77
2021/07/02 08:04:16;;;;;;;4.63;3.57;;;;;;;22.30;58.92;98676.28;125017;1093;64191;-77
2021/07/02 08:06:44;;;;;;;3.53;3.10;;;;;;;22.50;59.27;98675.72;125037;1092;64271;-76
2021/07/02 08:09:11;;;;;;;3.97;3.23;;;;;;;22.67;59.02;98679.08;125011;1091;64188;-78
2021/07/02 08:11:40;;;;;;;4.33;3.33;;;;;;;22.72;58.75;98674.80;125092;1092;64241;-78
2021/07/02 08:14:07;;;;;;;3.87;3.20;;;;;;;22.63;58.30;98683.22;125065;1093;64188;-81
2021/07/02 08:16:35;;;;;;;3.07;2.80;;;;;;;22.44;58.18;98688.18;125192;1093;64354;-81
2021/07/02 08:19:03;;;;;;;7.33;3.20;;;;;;;22.33;58.46;98686.77;125120;1093;64241;-81
2021/07/02 08:21:30;;;;;;;5.80;3.97;;;;;;;22.29;58.34;98687.31;125202;1091;64276;-82
2021/07/02 08:23:57;;;;;;;3.53;3.20;;;;;;;22.32;58.14;98687.78;125127;1093;64217;-81
2021/07/02 08:26:25;;;;;;;3.70;3.40;;;;;;;22.41;58.92;98695.83;125146;1092;64372;-82
2021/07/02 08:31:37;;;;;;;9.93;5.63;;;;;;;22.84;60.15;98691.45;125057;1092;64283;-80
2021/07/02 08:34:04;;;;;;;6.43;5.83;;;;;;;22.93;60.62;98690.33;125044;1093;64207;-79
2021/07/02 08:36:32;;;;;;;7.13;6.23;;;;;;;22.97;60.74;98688.09;124975;1093;64284;-79
2021/07/02 08:38:59;;;;;;;6.80;6.17;;;;;;;22.98;60.69;98692.48;124979;1092;64265;-79
2021/07/02 08:41:25;;;;;;;7.23;6.63;;;;;;;23.06;61.07;98691.54;125031;1092;64303;-79
2021/07/02 08:43:52;;;;;;;6.97;6.37;;;;;;;23.11;60.81;98689.09;125053;1093;64236;-79
2021/07/02 08:46:22;;;;;;;6.50;6.00;;;;;;;23.08;60.68;98693.03;125011;1091;64261;-79
2021/07/02 08:48:50;;;;;;;7.93;6.93;;;;;;;22.99;60.79;98694.19;124993;1093;64262;-79
2021/07/02 08:51:18;;;;;;;6.73;6.20;;;;;;;23.02;61.15;98699.24;125089;1093;64287;-79
2021/07/02 08:53:44;;;;;;;6.83;6.23;;;;;;;23.10;61.11;98701.02;125048;1093;64278;-78
2021/07/02 08:56:11;;;;;;;7.87;6.60;;;;;;;23.27;60.73;98699.73;124992;1092;64307;-79
2021/07/02 08:58:38;;;;;;;7.40;6.73;;;;;;;23.55;60.58;98701.73;124980;1092;64210;-78
2021/07/02 09:01:08;;;;;;;7.83;6.90;;;;;;;23.84;60.15;98695.36;125005;1093;64207;-79
2021/07/02 09:03:39;;;;;;;12.53;6.60;;;;;;;24.04;59.75;98699.10;125023;1092;64386;-78
2021/07/02 09:06:09;;;;;;;6.83;5.97;;;;;;;24.23;59.33;98697.57;125026;1093;64392;-77
2021/07/02 09:08:36;;;;;;;7.50;6.53;;;;;;;24.41;58.88;98697.08;124993;1093;64335;-78
2021/07/02 09:11:22;;;;;;;9.05;5.35;;;;;;;24.66;58.59;98692.02;125017;1093;64267;-82
2021/07/02 09:13:49;;;;;;;9.50;5.70;;;;;;;24.79;57.83;98701.32;125157;1093;64281;-82
2021/07/02 09:16:28;;;;;;;6.30;5.63;;;;;;;24.93;57.49;98698.44;125088;1093;64267;-82
2021/07/02 09:18:55;;;;;;;;;;;;;;;25.21;57.40;98691.27;125237;1090;64184;-82
2021/07/02 09:21:29;;;;;;;5.77;5.20;;;;;;;25.51;57.37;98692.59;125089;1092;64251;-82
2021/07/02 09:23:58;;;;;;;6.20;5.60;;;;;;;25.88;56.80;98692.27;125105;1093;64466;-82
2021/07/02 09:26:43;;;;;;;4.60;4.25;;;;;;;26.12;55.95;98688.95;125122;1093;64268;-82
2021/07/02 09:29:21;;;;;;;5.13;4.77;;;;;;;26.27;54.72;98696.91;125112;1092;64386;-82
2021/07/02 09:32:00;;;;;;;5.50;5.10;;;;;;;26.36;54.79;98694.81;125145;1093;64630;-81
2021/07/02 09:34:50;;;;;;;5.03;4.57;;;;;;;26.39;54.87;98687.02;125120;1093;64284;-81
2021/07/02 09:37:31;;;;;;;5.27;4.80;;;;;;;26.14;53.55;98689.55;125110;1093;64284;-82
2021/07/02 09:40:22;;;;;;;4.90;4.45;;;;;;;26.03;52.57;98691.02;125045;1092;64260;-81
2021/07/02 09:43:08;;;;;;;4.63;4.10;;;;;;;25.69;53.40;98688.45;125103;1093;64281;-81
2021/07/02 09:45:44;;;;;;;6.37;4.97;;;;;;;25.35;54.17;98688.36;125082;1092;64284;-81
2021/07/02 09:48:13;;;;;;;7.63;5.03;;;;;;;24.97;54.30;98687.99;125136;1092;64262;-81
2021/07/02 09:50:52;;;;;;;7.97;4.93;;;;;;;24.75;55.02;98684.54;125154;1093;64251;-81
2021/07/02 09:53:24;;;;;;;6.88;4.65;;;;;;;24.41;55.30;98683.46;125146;1092;64188;-81
2021/07/02 09:55:54;;;;;;;5.03;4.63;;;;;;;24.06;55.97;98691.55;125185;1091;64309;-81
2021/07/02 09:58:29;;;;;;;6.93;4.93;;;;;;;23.85;56.46;98691.58;125190;1093;64280;-82
2021/07/02 10:00:59;;;;;;;5.10;4.80;;;;;;;23.59;56.83;98689.41;125258;1093;64325;-82
2021/07/02 10:03:27;;;;;;;5.43;4.93;;;;;;;23.51;57.58;98681.38;125147;1093;64370;-81
2021/07/02 10:05:56;;;;;;;5.30;4.90;;;;;;;23.52;58.01;98683.92;125159;1093;64364;-82
2021/07/02 10:08:31;;;;;;;6.13;5.50;;;;;;;23.58;58.08;98685.02;125176;1093;64279;-82
2021/07/02 10:11:00;;;;;;;6.00;5.40;;;;;;;23.66;58.03;98691.16;125222;1093;64287;-82
2021/07/02 10:13:29;;;;;;;6.25;5.78;;;;;;;23.81;57.84;98684.86;125133;1093;64265;-82
2021/07/02 10:15:58;;;;;;;5.65;5.15;;;;;;;23.98;57.35;98688.14;125224;1093;64303;-82
2021/07/02 10:18:29;;;;;;;5.40;4.87;;;;;;;24.19;57.11;98673.65;125189;1093;64355;-82
2021/07/02 10:21:00;;;;;;;5.73;4.87;;;;;;;24.49;56.51;98672.44;125116;1093;64558;-82
2021/07/02 10:23:32;;;;;;;5.17;4.67;;;;;;;24.63;56.41;98686.14;125166;1091;64852;-82
2021/07/02 10:26:00;;;;;;;5.60;5.20;;;;;;;24.76;56.53;98686.21;125160;1093;64241;-82
2021/07/02 10:28:28;;;;;;;5.87;4.77;;;;;;;24.78;56.17;98683.27;125141;1093;64264;-83
2021/07/02 10:30:55;;;;;;;5.70;4.50;;;;;;;24.75;55.97;98684.54;125113;1093;64175;-81
2021/07/02 10:33:27;;;;;;;5.43;4.30;;;;;;;24.78;55.91;98680.54;125106;1092;64267;-81
2021/07/02 10:36:06;;;;;;;4.57;4.17;;;;;;;24.82;56.16;98685.39;125153;1093;64408;-81
2021/07/02 10:38:45;;;;;;;5.00;4.37;;;;;;;24.87;55.67;98677.45;125146;1093;65763;-82
2021/07/02 10:41:21;;;;;;;6.97;5.03;;;;;;;24.94;55.43;98677.50;125047;1093;64211;-83
2021/07/02 10:44:08;;;;;;;5.70;5.10;;;;;;;24.97;55.43;98680.64;125092;1092;64350;-81
2021/07/02 10:46:39;;;;;;;4.80;4.40;;;;;;;24.95;54.80;98681.89;125161;1093;64272;-81
2021/07/02 10:49:12;;;;;;;4.53;4.13;;;;;;;24.88;54.97;98683.73;125176;1093;64396;-82
2021/07/02 10:51:44;;;;;;;7.20;5.07;;;;;;;24.74;55.01;98683.67;125145;1093;64291;-82
2021/07/02 10:54:13;;;;;;;7.67;4.93;;;;;;;24.67;55.36;98690.13;125099;1093;64306;-81
2021/07/02 10:56:46;;;;;;;;;;;;;;;24.43;55.17;98688.69;125126;1093;64261;-82
2021/07/02 10:59:13;;;;;;;4.73;4.33;;;;;;;24.18;55.85;98691.04;125136;1092;64345;-82
2021/07/02 11:02:08;;;;;;;4.80;4.40;;;;;;;24.13;55.79;98696.23;125099;1092;64360;-81
2021/07/02 11:04:48;;;;;;;4.70;4.30;;;;;;;24.08;55.99;98686.77;125164;1092;64281;-81
2021/07/02 11:07:15;;;;;;;4.53;4.23;;;;;;;24.08;55.94;98688.65;125205;1093;64217;-81
2021/07/02 11:09:55;;;;;;;5.10;4.60;;;;;;;24.09;55.86;98688.47;125164;1093;64271;-81
2021/07/02 11:12:43;;;;;;;4.50;4.20;;;;;;;24.19;56.01;98689.98;125156;1093;64238;-81
2021/07/02 11:15:18;;;;;;;4.50;4.20;;;;;;;24.34;56.34;98681.73;125103;1092;64337;-81
2021/07/02 11:17:47;;;;;;;4.23;3.87;;;;;;;24.47;55.88;98679.96;125188;1093;64309;-83
2021/07/02 11:20:21;;;;;;;4.83;4.40;;;;;;;24.52;55.70;98684.81;125222;1093;64213;-81
2021/07/02 11:22:52;;;;;;;4.30;3.90;;;;;;;24.56;55.90;98672.45;125171;1092;64290;-81
2021/07/02 11:25:29;;;;;;;5.05;4.60;;;;;;;24.65;55.11;98674.00;125066;1093;64188;-81
2021/07/02 11:28:02;;;;;;;4.30;4.00;;;;;;;24.76;55.51;98669.86;125132;1092;64217;-84
2021/07/02 11:30:35;;;;;;;5.37;4.97;;;;;;;24.83;55.39;98658.97;125102;1092;64302;-81
2021/07/02 11:33:04;;;;;;;7.73;5.70;;;;;;;24.81;55.66;98666.53;125124;1093;64314;-81
2021/07/02 11:35:33;;;;;;;5.60;4.30;;;;;;;24.73;55.05;98670.27;125140;1093;64289;-81
2021/07/02 11:38:03;;;;;;;5.60;4.57;;;;;;;24.49;55.30;98675.16;125148;1092;64289;-81